Time;durP1;ratioP1;P1;durP2;ratioP2;P2;SDS_P1;SDS_P2;PMS_P1;PMS_P2;Temp;Humidity;BMP_temperature;BMP_pressure;BME280_temperature;BME280_humidity;BME280_pressure;Samples;Min_cycle;Max_cycle;Signal;HPM_P1;HPM_P2
2022/08/23 00:01:31;;;;;;;2.55;2.10;;;;;;;;;;5051916;28;20672;-76
2022/08/23 00:04:01;;;;;;;3.08;1.98;;;;;;;;;;5054990;28;20226;-76
2022/08/23 00:06:29;;;;;;;4.22;2.15;;;;;;;;;;5061033;28;20203;-75
2022/08/23 00:08:56;;;;;;;2.47;1.95;;;;;;;;;;5071332;28;20230;-75
2022/08/23 00:11:27;;;;;;;3.17;2.40;;;;;;;;;;5071622;28;20625;-75
2022/08/23 00:13:55;;;;;;;3.72;2.45;;;;;;;;;;5069150;28;20225;-76
2022/08/23 00:16:22;;;;;;;3.13;2.47;;;;;;;;;;5067109;28;20288;-76
2022/08/23 00:18:49;;;;;;;4.85;2.38;;;;;;;;;;5065778;28;20230;-76
2022/08/23 00:21:18;;;;;;;3.30;2.50;;;;;;;;;;5052033;28;20231;-76
2022/08/23 00:23:45;;;;;;;4.22;2.88;;;;;;;;;;5051818;28;20202;-76
2022/08/23 00:26:13;;;;;;;3.75;2.80;;;;;;;;;;5054673;28;20627;-76
2022/08/23 00:28:40;;;;;;;3.95;3.13;;;;;;;;;;5054737;28;20314;-76
2022/08/23 00:31:07;;;;;;;3.45;3.15;;;;;;;;;;5067773;28;20205;-76
2022/08/23 00:33:35;;;;;;;3.65;2.85;;;;;;;;;;5068223;28;20227;-75
2022/08/23 00:36:02;;;;;;;3.65;2.88;;;;;;;;;;5054976;28;20227;-76
2022/08/23 00:38:31;;;;;;;3.80;2.80;;;;;;;;;;5054852;28;20278;-76
2022/08/23 00:40:58;;;;;;;4.25;2.63;;;;;;;;;;5063936;28;20238;-76
2022/08/23 00:49:01;;;;;;;3.40;2.90;;;;;;;;;;5069087;28;20242;-76
2022/08/23 00:51:30;;;;;;;3.10;2.80;;;;;;;;;;5072175;28;20629;-76
2022/08/23 00:54:00;;;;;;;4.03;2.70;;;;;;;;;;5062680;28;20282;-76
2022/08/23 00:56:29;;;;;;;3.30;2.90;;;;;;;;;;5074748;28;20571;-76
2022/08/23 00:58:56;;;;;;;3.33;2.92;;;;;;;;;;5074420;28;20215;-76
2022/08/23 01:01:24;;;;;;;4.43;3.10;;;;;;;;;;5074889;28;20226;-76
2022/08/23 01:03:53;;;;;;;5.20;3.50;;;;;;;;;;5074188;28;20202;-76
2022/08/23 01:06:22;;;;;;;4.68;3.15;;;;;;;;;;5074431;28;20202;-76
2022/08/23 01:08:52;;;;;;;3.97;3.25;;;;;;;;;;5071669;28;20673;-76
2022/08/23 01:11:26;;;;;;;3.60;3.30;;;;;;;;;;5074375;28;20246;-76
2022/08/23 01:13:56;;;;;;;4.13;3.58;;;;;;;;;;5062683;28;20227;-76
2022/08/23 01:16:26;;;;;;;4.22;3.65;;;;;;;;;;5054567;28;20293;-76
2022/08/23 01:18:53;;;;;;;4.40;3.83;;;;;;;;;;5072116;28;20283;-76
2022/08/23 01:21:22;;;;;;;5.28;3.83;;;;;;;;;;5073764;28;20268;-76
2022/08/23 01:23:54;;;;;;;6.15;3.95;;;;;;;;;;5069075;28;20231;-76
2022/08/23 01:26:22;;;;;;;4.63;3.88;;;;;;;;;;5054819;28;20694;-76
2022/08/23 01:28:49;;;;;;;4.75;4.00;;;;;;;;;;5073024;28;20306;-76
2022/08/23 01:31:17;;;;;;;4.47;3.40;;;;;;;;;;5073517;28;20272;-76
2022/08/23 01:33:46;;;;;;;3.45;3.13;;;;;;;;;;5065643;28;20196;-76
2022/08/23 01:36:16;;;;;;;5.45;3.30;;;;;;;;;;5070912;28;20579;-77
2022/08/23 01:38:44;;;;;;;3.55;3.25;;;;;;;;;;5073224;28;20199;-77
2022/08/23 01:41:12;;;;;;;5.15;3.35;;;;;;;;;;5072548;28;20242;-76
2022/08/23 01:43:40;;;;;;;4.78;3.33;;;;;;;;;;5073607;28;20728;-76
2022/08/23 01:46:08;;;;;;;3.78;3.08;;;;;;;;;;5073487;28;20209;-76
2022/08/23 01:48:36;;;;;;;4.65;3.65;;;;;;;;;;5059029;28;20322;-76
2022/08/23 01:51:03;;;;;;;4.18;3.03;;;;;;;;;;5060494;28;20689;-76
2022/08/23 01:53:30;;;;;;;4.30;3.20;;;;;;;;;;5054824;28;20263;-76
2022/08/23 01:55:58;;;;;;;3.13;2.78;;;;;;;;;;5066464;28;20206;-76
2022/08/23 01:58:26;;;;;;;3.83;3.53;;;;;;;;;;5058149;28;20247;-76
2022/08/23 02:00:54;;;;;;;4.97;3.65;;;;;;;;;;5053189;28;20714;-76
2022/08/23 02:03:21;;;;;;;4.88;4.30;;;;;;;;;;5053628;28;20238;-76
2022/08/23 02:05:48;;;;;;;4.25;3.80;;;;;;;;;;5053256;28;20243;-76
2022/08/23 02:11:00;;;;;;;5.13;4.18;;;;;;;;;;5072707;28;20198;-76
2022/08/23 02:13:29;;;;;;;4.40;3.75;;;;;;;;;;5072969;28;20290;-76
2022/08/23 02:15:57;;;;;;;4.20;3.80;;;;;;;;;;5073134;28;20195;-76
2022/08/23 02:18:24;;;;;;;4.35;3.78;;;;;;;;;;5072446;28;20624;-76
2022/08/23 02:20:52;;;;;;;4.10;3.50;;;;;;;;;;5072810;28;20294;-76
2022/08/23 02:23:20;;;;;;;4.57;3.95;;;;;;;;;;5072839;28;20603;-76
2022/08/23 02:25:49;;;;;;;5.95;3.80;;;;;;;;;;5058262;28;20200;-76
2022/08/23 02:28:16;;;;;;;6.75;4.10;;;;;;;;;;5052412;28;20302;-75
2022/08/23 02:30:46;;;;;;;4.88;4.18;;;;;;;;;;5062822;28;20234;-75
2022/08/23 02:33:14;;;;;;;4.47;3.90;;;;;;;;;;5070230;28;20231;-76
2022/08/23 02:35:41;;;;;;;5.82;4.20;;;;;;;;;;5072526;28;20234;-76
2022/08/23 02:38:11;;;;;;;4.60;4.03;;;;;;;;;;5072809;28;20286;-76
2022/08/23 02:40:39;;;;;;;4.15;3.75;;;;;;;;;;5071700;28;20222;-76
2022/08/23 02:43:06;;;;;;;5.38;3.83;;;;;;;;;;5072281;28;20226;-76
2022/08/23 02:45:34;;;;;;;5.68;4.00;;;;;;;;;;5072386;28;20198;-75
2022/08/23 02:48:02;;;;;;;6.47;4.28;;;;;;;;;;5067046;28;20305;-76
2022/08/23 02:50:30;;;;;;;5.72;4.45;;;;;;;;;;5035103;28;20231;-76
2022/08/23 02:52:58;;;;;;;4.68;4.13;;;;;;;;;;5063823;28;20702;-74
2022/08/23 02:55:25;;;;;;;5.03;4.43;;;;;;;;;;5071804;28;20801;-73
2022/08/23 02:57:53;;;;;;;5.75;4.10;;;;;;;;;;5071308;28;20250;-74
2022/08/23 03:00:20;;;;;;;4.78;3.72;;;;;;;;;;5072194;28;20282;-74
2022/08/23 03:02:48;;;;;;;7.40;4.65;;;;;;;;;;5072442;28;20231;-74
2022/08/23 03:05:16;;;;;;;6.55;4.57;;;;;;;;;;5071099;28;20230;-74
2022/08/23 03:07:44;;;;;;;5.75;5.13;;;;;;;;;;5069735;28;20302;-74
2022/08/23 03:10:12;;;;;;;6.63;4.45;;;;;;;;;;5071490;28;20245;-73
2022/08/23 03:12:39;;;;;;;5.72;4.25;;;;;;;;;;5072473;28;20248;-74
2022/08/23 03:15:07;;;;;;;6.78;4.60;;;;;;;;;;5072227;28;20582;-74
2022/08/23 03:17:35;;;;;;;7.80;4.65;;;;;;;;;;5071885;28;20557;-73
2022/08/23 03:20:02;;;;;;;6.43;4.60;;;;;;;;;;5066949;28;20203;-73
2022/08/23 03:22:30;;;;;;;6.18;4.57;;;;;;;;;;5063518;28;20200;-73
2022/08/23 03:24:57;;;;;;;7.25;4.65;;;;;;;;;;5071800;28;20199;-73
2022/08/23 03:27:25;;;;;;;7.03;4.80;;;;;;;;;;5070751;28;20253;-73
2022/08/23 03:29:52;;;;;;;7.10;4.78;;;;;;;;;;5072098;28;20227;-73
2022/08/23 03:32:19;;;;;;;5.97;4.40;;;;;;;;;;5065143;28;20291;-73
2022/08/23 03:34:47;;;;;;;4.63;4.13;;;;;;;;;;5052045;28;20199;-73
2022/08/23 03:37:14;;;;;;;7.00;4.43;;;;;;;;;;5055601;28;20713;-74
2022/08/23 03:39:42;;;;;;;5.35;4.63;;;;;;;;;;5071692;28;20616;-73
2022/08/23 03:42:10;;;;;;;5.30;4.20;;;;;;;;;;5062955;28;20672;-73
2022/08/23 03:44:38;;;;;;;5.43;4.28;;;;;;;;;;5039847;28;20195;-73
2022/08/23 03:47:05;;;;;;;5.00;4.20;;;;;;;;;;5052848;28;20259;-73
2022/08/23 03:49:33;;;;;;;6.22;4.45;;;;;;;;;;5052935;28;20590;-74
2022/08/23 03:52:00;;;;;;;4.97;4.43;;;;;;;;;;5051630;28;20204;-73
2022/08/23 03:54:28;;;;;;;5.55;3.80;;;;;;;;;;5070188;28;20199;-74
2022/08/23 03:56:59;;;;;;;5.22;4.20;;;;;;;;;;5070927;28;20210;-73
2022/08/23 03:59:27;;;;;;;4.20;3.80;;;;;;;;;;5073741;28;20215;-73
2022/08/23 04:01:54;;;;;;;5.18;4.13;;;;;;;;;;5074783;28;20219;-74
2022/08/23 04:04:21;;;;;;;5.43;3.92;;;;;;;;;;5073497;28;20230;-73
2022/08/23 04:06:49;;;;;;;6.50;4.20;;;;;;;;;;5054865;28;20614;-73
2022/08/23 04:09:16;;;;;;;5.75;4.18;;;;;;;;;;5065471;28;20262;-73
2022/08/23 04:11:44;;;;;;;7.10;4.72;;;;;;;;;;5075209;28;20231;-73
2022/08/23 04:14:12;;;;;;;5.80;4.03;;;;;;;;;;5075386;28;20286;-73
2022/08/23 04:16:40;;;;;;;4.60;4.03;;;;;;;;;;5075014;28;20245;-74
2022/08/23 04:19:08;;;;;;;6.03;4.03;;;;;;;;;;5056136;28;20261;-73
2022/08/23 04:21:36;;;;;;;4.85;4.28;;;;;;;;;;5064608;28;20234;-73
2022/08/23 04:24:03;;;;;;;4.93;3.97;;;;;;;;;;5074592;28;20239;-74
2022/08/23 04:26:32;;;;;;;4.55;3.95;;;;;;;;;;5073162;28;20282;-73
2022/08/23 04:28:59;;;;;;;5.05;4.22;;;;;;;;;;5074714;28;20280;-74
2022/08/23 04:31:29;;;;;;;5.65;4.30;;;;;;;;;;5075020;28;20233;-74
2022/08/23 04:33:56;;;;;;;5.03;4.30;;;;;;;;;;5074584;28;20674;-73
2022/08/23 04:36:24;;;;;;;4.85;4.35;;;;;;;;;;5074772;28;20195;-74
2022/08/23 04:38:51;;;;;;;6.05;4.50;;;;;;;;;;5067967;28;20232;-74
2022/08/23 04:44:04;;;;;;;5.68;4.72;;;;;;;;;;4971987;28;20202;-74
2022/08/23 04:46:33;;;;;;;5.10;4.30;;;;;;;;;;4988914;28;20280;-73
2022/08/23 04:49:00;;;;;;;5.80;4.40;;;;;;;;;;4973217;28;20273;-73
2022/08/23 04:51:28;;;;;;;5.35;4.18;;;;;;;;;;4972768;28;20289;-74
2022/08/23 04:53:55;;;;;;;5.13;4.28;;;;;;;;;;4973234;28;20261;-73
2022/08/23 04:56:23;;;;;;;5.03;4.40;;;;;;;;;;4972948;28;20206;-74
2022/08/23 04:58:50;;;;;;;7.20;5.20;;;;;;;;;;4973355;28;20229;-74
2022/08/23 05:01:17;;;;;;;6.35;5.00;;;;;;;;;;4988839;28;20292;-74
2022/08/23 05:03:46;;;;;;;5.88;4.90;;;;;;;;;;4990657;28;20676;-74
2022/08/23 05:06:13;;;;;;;5.80;4.88;;;;;;;;;;4980121;28;20241;-75
2022/08/23 05:08:40;;;;;;;5.80;4.38;;;;;;;;;;4967378;28;20219;-75
2022/08/23 05:11:08;;;;;;;6.90;4.80;;;;;;;;;;4977983;28;20237;-75
2022/08/23 05:13:36;;;;;;;6.38;4.40;;;;;;;;;;4977502;28;20701;-75
2022/08/23 05:16:04;;;;;;;5.95;4.80;;;;;;;;;;4974797;28;20241;-74
2022/08/23 05:18:32;;;;;;;5.93;4.55;;;;;;;;;;4977872;28;20230;-75
2022/08/23 05:21:01;;;;;;;6.28;4.78;;;;;;;;;;5008514;28;20287;-74
2022/08/23 05:23:28;;;;;;;4.93;4.45;;;;;;;;;;5064638;28;20196;-74
2022/08/23 05:25:57;;;;;;;4.45;3.80;;;;;;;;;;5053888;28;20238;-74
2022/08/23 05:28:25;;;;;;;4.63;3.95;;;;;;;;;;5058990;28;20230;-74
2022/08/23 05:30:56;;;;;;;4.90;4.20;;;;;;;;;;5073260;28;20260;-74
2022/08/23 05:33:23;;;;;;;6.43;4.28;;;;;;;;;;5072412;28;20666;-73
2022/08/23 05:35:51;;;;;;;5.55;4.10;;;;;;;;;;5054338;28;20208;-74
2022/08/23 05:38:19;;;;;;;4.35;3.50;;;;;;;;;;5053726;28;20230;-74
2022/08/23 05:40:49;;;;;;;5.55;4.30;;;;;;;;;;5059822;28;20733;-74
2022/08/23 05:43:16;;;;;;;6.60;5.07;;;;;;;;;;5061292;28;20282;-74
2022/08/23 05:45:43;;;;;;;6.85;4.82;;;;;;;;;;5060312;28;20223;-75
2022/08/23 05:48:10;;;;;;;5.75;4.72;;;;;;;;;;5045833;28;20232;-75
2022/08/23 05:50:38;;;;;;;7.90;4.78;;;;;;;;;;5031985;28;20228;-75
2022/08/23 05:53:06;;;;;;;6.05;4.45;;;;;;;;;;5060444;28;20191;-75
2022/08/23 05:55:35;;;;;;;6.85;4.50;;;;;;;;;;5071311;28;20822;-75
2022/08/23 05:58:02;;;;;;;7.63;4.32;;;;;;;;;;5071878;28;20307;-74
2022/08/23 06:00:29;;;;;;;7.30;4.40;;;;;;;;;;5072765;28;20278;-74
2022/08/23 06:02:56;;;;;;;4.50;3.85;;;;;;;;;;5072257;28;20199;-74
2022/08/23 06:05:24;;;;;;;5.25;3.72;;;;;;;;;;5073173;28;20206;-74
2022/08/23 06:07:51;;;;;;;5.22;3.78;;;;;;;;;;5073026;28;20297;-74
2022/08/23 06:10:20;;;;;;;3.97;3.30;;;;;;;;;;5072323;28;20642;-74
2022/08/23 06:12:48;;;;;;;5.53;4.03;;;;;;;;;;5072836;28;20593;-74
2022/08/23 06:15:16;;;;;;;4.32;3.25;;;;;;;;;;5072772;28;20203;-75
2022/08/23 06:17:43;;;;;;;5.63;3.78;;;;;;;;;;5071405;28;20282;-74
2022/08/23 06:20:11;;;;;;;4.78;3.58;;;;;;;;;;5072762;28;20280;-74
2022/08/23 06:22:38;;;;;;;4.13;3.35;;;;;;;;;;5072715;28;20238;-74
2022/08/23 06:25:05;;;;;;;5.00;3.80;;;;;;;;;;5071977;28;20654;-74
2022/08/23 06:27:32;;;;;;;3.72;3.15;;;;;;;;;;5061303;28;20231;-74
2022/08/23 06:30:01;;;;;;;3.72;2.85;;;;;;;;;;5052837;28;20258;-74
2022/08/23 06:32:28;;;;;;;4.95;3.40;;;;;;;;;;5070341;28;20286;-74
2022/08/23 06:34:55;;;;;;;5.40;3.15;;;;;;;;;;5072555;28;20230;-74
2022/08/23 06:37:23;;;;;;;5.00;3.25;;;;;;;;;;5072194;28;20282;-75
2022/08/23 06:39:51;;;;;;;6.32;3.53;;;;;;;;;;5072197;28;20198;-75
2022/08/23 06:42:18;;;;;;;5.18;3.42;;;;;;;;;;5071711;28;20651;-75
2022/08/23 06:44:46;;;;;;;4.45;3.50;;;;;;;;;;5063110;28;20199;-74
2022/08/23 06:47:15;;;;;;;6.60;3.63;;;;;;;;;;5059225;28;20280;-75
2022/08/23 06:49:44;;;;;;;6.40;4.13;;;;;;;;;;5052233;28;20277;-75
2022/08/23 06:52:12;;;;;;;4.28;3.42;;;;;;;;;;5052518;28;20238;-75
2022/08/23 06:54:39;;;;;;;6.10;3.60;;;;;;;;;;5052551;28;20199;-74
2022/08/23 06:57:07;;;;;;;4.50;3.70;;;;;;;;;;5053927;28;20285;-74
2022/08/23 06:59:34;;;;;;;4.45;3.60;;;;;;;;;;5071568;28;20239;-75
2022/08/23 07:02:02;;;;;;;5.65;3.45;;;;;;;;;;5072278;28;20203;-74
2022/08/23 07:04:32;;;;;;;3.47;2.58;;;;;;;;;;5070669;28;20203;-75
2022/08/23 07:07:00;;;;;;;4.38;2.45;;;;;;;;;;5072342;28;20261;-75
2022/08/23 07:09:28;;;;;;;3.15;2.38;;;;;;;;;;5058781;28;20277;-75
2022/08/23 07:11:55;;;;;;;2.15;1.92;;;;;;;;;;5056098;28;20282;-75
2022/08/23 07:14:23;;;;;;;2.42;1.80;;;;;;;;;;5072055;28;20294;-76
2022/08/23 07:16:50;;;;;;;2.20;1.83;;;;;;;;;;5071353;28;20634;-75
2022/08/23 07:19:18;;;;;;;2.47;2.10;;;;;;;;;;5072113;28;20289;-75
2022/08/23 07:21:47;;;;;;;2.10;1.90;;;;;;;;;;5072214;28;20203;-75
2022/08/23 07:24:15;;;;;;;2.50;1.80;;;;;;;;;;5057401;28;20659;-75
2022/08/23 07:26:44;;;;;;;2.45;1.90;;;;;;;;;;5051718;28;20261;-75
2022/08/23 07:29:12;;;;;;;3.78;1.50;;;;;;;;;;5051593;28;20223;-75
2022/08/23 07:31:40;;;;;;;2.90;1.40;;;;;;;;;;5051998;28;20615;-76
2022/08/23 07:34:07;;;;;;;1.58;1.25;;;;;;;;;;5054382;28;20195;-75
2022/08/23 07:36:35;;;;;;;1.65;1.13;;;;;;;;;;5056042;28;20672;-75
2022/08/23 07:39:04;;;;;;;2.05;1.42;;;;;;;;;;5055787;28;20322;-75
2022/08/23 07:41:32;;;;;;;2.55;1.13;;;;;;;;;;5055803;28;20238;-75
2022/08/23 07:44:00;;;;;;;3.60;1.50;;;;;;;;;;5055659;28;20199;-75
2022/08/23 07:46:27;;;;;;;1.50;1.13;;;;;;;;;;5055546;28;20204;-75
2022/08/23 07:48:56;;;;;;;1.92;1.50;;;;;;;;;;5060852;28;20199;-76
2022/08/23 07:51:24;;;;;;;1.42;1.30;;;;;;;;;;5065037;28;20208;-75
2022/08/23 07:53:51;;;;;;;1.85;1.20;;;;;;;;;;5054849;28;20294;-75
2022/08/23 07:56:20;;;;;;;1.60;0.80;;;;;;;;;;5054898;28;20195;-74
2022/08/23 07:58:48;;;;;;;1.25;0.82;;;;;;;;;;5071943;28;20302;-74
2022/08/23 08:01:18;;;;;;;1.92;1.00;;;;;;;;;;5065060;28;20192;-74
2022/08/23 08:03:45;;;;;;;1.83;0.70;;;;;;;;;;5056328;28;20228;-75
2022/08/23 08:06:17;;;;;;;1.00;0.65;;;;;;;;;;5053725;28;20255;-74
2022/08/23 08:08:50;;;;;;;1.55;1.00;;;;;;;;;;5050403;28;20258;-74
2022/08/23 08:11:19;;;;;;;2.20;0.70;;;;;;;;;;5055321;28;20230;-75
2022/08/23 08:13:50;;;;;;;1.25;0.80;;;;;;;;;;5050854;28;20202;-74
2022/08/23 08:16:22;;;;;;;1.30;0.70;;;;;;;;;;5055074;28;20230;-73
2022/08/23 08:18:51;;;;;;;0.90;0.60;;;;;;;;;;5055995;28;20207;-74
2022/08/23 08:21:18;;;;;;;1.45;1.10;;;;;;;;;;5056282;28;20199;-73
2022/08/23 08:23:45;;;;;;;1.45;1.23;;;;;;;;;;5053514;28;20253;-74
2022/08/23 08:26:14;;;;;;;1.40;1.00;;;;;;;;;;5057848;28;20294;-75
2022/08/23 08:28:42;;;;;;;1.60;1.08;;;;;;;;;;5048817;28;20313;-75
2022/08/23 08:31:11;;;;;;;1.10;1.00;;;;;;;;;;5053523;28;20240;-76
2022/08/23 08:33:38;;;;;;;0.90;0.65;;;;;;;;;;5061471;28;20228;-76
2022/08/23 08:36:06;;;;;;;1.95;1.00;;;;;;;;;;5068018;28;20236;-77
2022/08/23 08:38:33;;;;;;;1.00;0.80;;;;;;;;;;5058443;28;20216;-77
2022/08/23 08:41:02;;;;;;;0.98;0.80;;;;;;;;;;5054748;28;20725;-77
2022/08/23 08:43:35;;;;;;;1.40;1.00;;;;;;;;;;5070492;28;20233;-77
2022/08/23 08:46:05;;;;;;;1.13;0.90;;;;;;;;;;5059769;28;20275;-77
2022/08/23 08:48:36;;;;;;;2.40;1.00;;;;;;;;;;5040282;28;20250;-77
2022/08/23 08:51:08;;;;;;;1.65;1.10;;;;;;;;;;5068324;28;20251;-76
2022/08/23 08:53:38;;;;;;;1.30;1.00;;;;;;;;;;5058613;28;20675;-76
2022/08/23 08:56:13;;;;;;;1.13;0.93;;;;;;;;;;5066711;28;20228;-76
2022/08/23 08:58:42;;;;;;;1.77;1.00;;;;;;;;;;5054377;28;20226;-76
2022/08/23 09:01:09;;;;;;;1.00;0.90;;;;;;;;;;5058965;28;20192;-77
2022/08/23 09:03:38;;;;;;;1.75;0.90;;;;;;;;;;5068061;28;20667;-76
2022/08/23 09:06:12;;;;;;;1.42;0.80;;;;;;;;;;5072773;28;20258;-76
2022/08/23 09:08:46;;;;;;;1.42;0.80;;;;;;;;;;5063572;28;20237;-76
2022/08/23 09:11:17;;;;;;;4.63;0.95;;;;;;;;;;5056447;28;20798;-76
2022/08/23 09:14:03;;;;;;;0.93;0.73;;;;;;;;;;5064716;28;20682;-76
2022/08/23 09:16:35;;;;;;;2.30;0.65;;;;;;;;;;5052220;28;20194;-76
2022/08/23 09:19:05;;;;;;;3.85;0.90;;;;;;;;;;5065599;28;20291;-77
2022/08/23 09:21:34;;;;;;;1.60;0.80;;;;;;;;;;5064148;28;20191;-77
2022/08/23 09:24:01;;;;;;;2.15;0.82;;;;;;;;;;5069355;28;20289;-77
2022/08/23 09:26:30;;;;;;;1.67;1.00;;;;;;;;;;5051309;28;20223;-76
2022/08/23 09:28:59;;;;;;;0.90;0.73;;;;;;;;;;5061088;28;20579;-76
2022/08/23 09:31:40;;;;;;;1.60;0.75;;;;;;;;;;5063953;28;20220;-76
2022/08/23 09:34:08;;;;;;;1.58;0.98;;;;;;;;;;5060422;28;20198;-77
2022/08/23 09:36:38;;;;;;;1.27;0.88;;;;;;;;;;5048486;28;20238;-76
2022/08/23 09:39:07;;;;;;;1.80;0.73;;;;;;;;;;5067370;28;20233;-77
2022/08/23 09:41:36;;;;;;;2.88;2.35;;;;;;;;;;5071843;28;20221;-76
2022/08/23 09:44:07;;;;;;;1.27;1.10;;;;;;;;;;5060049;28;20203;-76
2022/08/23 09:46:37;;;;;;;1.23;0.90;;;;;;;;;;5058754;28;20231;-76
2022/08/23 09:49:22;;;;;;;0.82;0.70;;;;;;;;;;5058766;28;20253;-77
2022/08/23 09:51:50;;;;;;;0.73;0.68;;;;;;;;;;5059988;28;20266;-76
2022/08/23 09:54:19;;;;;;;1.92;1.20;;;;;;;;;;5056350;28;20667;-77
2022/08/23 09:56:51;;;;;;;4.30;1.92;;;;;;;;;;5071793;28;20234;-76
2022/08/23 09:59:32;;;;;;;3.03;2.60;;;;;;;;;;5065586;28;20766;-77
2022/08/23 10:02:00;;;;;;;5.10;4.32;;;;;;;;;;5050188;28;20231;-76
2022/08/23 10:04:42;;;;;;;2.80;2.50;;;;;;;;;;5060246;28;20239;-76
2022/08/23 10:07:25;;;;;;;3.00;1.40;;;;;;;;;;5058568;28;20195;-76
2022/08/23 10:09:53;;;;;;;1.70;1.20;;;;;;;;;;5062845;28;20191;-77
2022/08/23 10:12:21;;;;;;;2.30;0.93;;;;;;;;;;5040378;28;20226;-77
2022/08/23 10:14:48;;;;;;;0.85;0.80;;;;;;;;;;5053148;28;20262;-77
2022/08/23 10:17:23;;;;;;;3.42;0.90;;;;;;;;;;5057716;28;20227;-77
2022/08/23 10:19:55;;;;;;;0.80;0.70;;;;;;;;;;5057558;28;20207;-77
2022/08/23 10:22:23;;;;;;;0.70;0.60;;;;;;;;;;5063452;28;20289;-77
2022/08/23 10:24:55;;;;;;;0.73;0.55;;;;;;;;;;5057673;28;20660;-77
2022/08/23 10:30:13;;;;;;;0.90;0.60;;;;;;;;;;5049565;28;20227;-77
2022/08/23 10:32:46;;;;;;;1.02;0.68;;;;;;;;;;5056691;28;20286;-77
2022/08/23 10:35:25;;;;;;;2.50;0.60;;;;;;;;;;5056717;28;20290;-77
2022/08/23 10:37:58;;;;;;;1.23;0.47;;;;;;;;;;5057742;28;20253;-77
2022/08/23 10:40:28;;;;;;;1.35;0.73;;;;;;;;;;5058368;28;20250;-77
2022/08/23 10:43:02;;;;;;;1.75;0.80;;;;;;;;;;5057416;28;20212;-77
2022/08/23 10:45:32;;;;;;;1.10;0.80;;;;;;;;;;5052503;28;20223;-77
2022/08/23 10:48:12;;;;;;;1.70;0.98;;;;;;;;;;5054730;28;20345;-77
2022/08/23 10:50:43;;;;;;;1.35;0.90;;;;;;;;;;5043179;28;20284;-77
2022/08/23 10:53:12;;;;;;;1.42;1.10;;;;;;;;;;5049174;28;20316;-78
2022/08/23 10:55:53;;;;;;;1.20;1.10;;;;;;;;;;5080211;28;20231;-77
2022/08/23 11:01:35;;;;;;;1.70;1.30;;;;;;;;;;5030043;28;20223;-77
2022/08/23 11:04:19;;;;;;;4.35;2.05;;;;;;;;;;5049016;28;20683;-77
2022/08/23 11:10:08;;;;;;;0.85;0.75;;;;;;;;;;5048049;28;20250;-78
2022/08/23 11:16:11;;;;;;;1.40;0.82;;;;;;;;;;4983741;28;20209;-77
2022/08/23 11:18:44;;;;;;;1.33;1.00;;;;;;;;;;4966818;28;20288;-77
2022/08/23 11:21:40;;;;;;;1.13;0.95;;;;;;;;;;4962431;28;20202;-77
2022/08/23 11:24:32;;;;;;;1.40;1.10;;;;;;;;;;4958693;28;20233;-77
2022/08/23 11:27:32;;;;;;;3.00;1.02;;;;;;;;;;4953300;28;20675;-77
2022/08/23 11:30:23;;;;;;;3.25;2.88;;;;;;;;;;4964193;28;20343;-77
2022/08/23 11:33:26;;;;;;;3.22;2.92;;;;;;;;;;4959338;28;20264;-77
2022/08/23 11:36:28;;;;;;;5.32;2.72;;;;;;;;;;4957961;28;20252;-77
2022/08/23 11:39:13;;;;;;;0.70;0.70;;;;;;;;;;5020025;22;20240;-77
2022/08/23 11:45:02;;;;;;;1.58;0.70;;;;;;;;;;5038266;28;20570;-77
2022/08/23 11:48:03;;;;;;;1.05;0.50;;;;;;;;;;5031838;28;20229;-77
2022/08/23 11:50:43;;;;;;;0.60;0.50;;;;;;;;;;5014922;28;20723;-77
2022/08/23 11:53:39;;;;;;;2.10;0.70;;;;;;;;;;5031732;28;20200;-77
2022/08/23 11:56:29;;;;;;;1.45;0.70;;;;;;;;;;5039029;28;20677;-77
2022/08/23 12:02:52;;;;;;;0.60;0.60;;;;;;;;;;4969717;28;20253;-77
2022/08/23 12:05:43;;;;;;;1.15;0.50;;;;;;;;;;4980865;28;20206;-77
2022/08/23 12:11:37;;;;;;;0.70;0.70;;;;;;;;;;4979756;28;20309;-77
2022/08/23 12:17:29;;;;;;;1.65;0.60;;;;;;;;;;5006758;28;20226;-76
2022/08/23 12:23:20;;;;;;;1.67;0.60;;;;;;;;;;4977578;28;20236;-77
2022/08/23 12:37:28;;;;;;;1.13;0.80;;;;;;;;;;5056914;28;20245;-77
2022/08/23 12:40:26;;;;;;;2.25;0.68;;;;;;;;;;5062762;28;20234;-77
2022/08/23 12:43:18;;;;;;;2.58;0.70;;;;;;;;;;5054423;28;20210;-77
2022/08/23 12:45:58;;;;;;;1.35;0.60;;;;;;;;;;5061377;28;20200;-77
2022/08/23 12:49:08;;;;;;;0.80;0.60;;;;;;;;;;5061239;22;20715;-77
2022/08/23 12:51:53;;;;;;;1.80;0.60;;;;;;;;;;5061082;28;20223;-77
2022/08/23 12:54:58;;;;;;;0.90;0.70;;;;;;;;;;5068925;28;20198;-77
2022/08/23 12:57:39;;;;;;;2.17;0.60;;;;;;;;;;5062002;28;20195;-77
2022/08/23 13:00:22;;;;;;;1.80;0.60;;;;;;;;;;5058511;28;20196;-77
2022/08/23 13:03:09;;;;;;;0.73;0.60;;;;;;;;;;5052212;28;20211;-77
2022/08/23 13:06:04;;;;;;;0.70;0.60;;;;;;;;;;5058415;28;20203;-77
2022/08/23 13:11:31;;;;;;;1.60;0.88;;;;;;;;;;5012741;28;20216;-77
2022/08/23 13:20:24;;;;;;;1.58;0.68;;;;;;;;;;5012995;28;20234;-77
2022/08/23 13:23:16;;;;;;;1.20;0.65;;;;;;;;;;5004969;28;20201;-76
2022/08/23 13:25:52;;;;;;;1.00;0.70;;;;;;;;;;5022961;28;20200;-77
2022/08/23 13:28:26;;;;;;;0.88;0.80;;;;;;;;;;5025025;28;20299;-77
2022/08/23 13:33:58;;;;;;;1.58;0.70;;;;;;;;;;1292840;26;20780;-77
2022/08/23 13:36:31;;;;;;;2.90;0.70;;;;;;;;;;5098052;28;20285;-77
2022/08/23 13:39:10;;;;;;;1.35;0.55;;;;;;;;;;5100116;28;20237;-77
2022/08/23 13:41:41;;;;;;;1.90;0.60;;;;;;;;;;5102717;28;20266;-77
2022/08/23 13:44:25;;;;;;;4.13;0.82;;;;;;;;;;5092672;28;20190;-77
2022/08/23 13:47:04;;;;;;;0.73;0.60;;;;;;;;;;5091642;28;20252;-77
2022/08/23 13:49:40;;;;;;;0.60;0.60;;;;;;;;;;5102035;28;20198;-76
2022/08/23 13:52:18;;;;;;;0.60;0.60;;;;;;;;;;5102161;28;20217;-76
2022/08/23 13:54:54;;;;;;;2.30;0.60;;;;;;;;;;5105615;28;20198;-76
2022/08/23 13:57:36;;;;;;;1.15;0.60;;;;;;;;;;5096690;28;20259;-77
2022/08/23 14:00:29;;;;;;;0.80;0.68;;;;;;;;;;5097578;28;20210;-77
2022/08/23 14:03:08;;;;;;;0.80;0.68;;;;;;;;;;5103887;28;20193;-77
2022/08/23 14:11:25;;;;;;;3.75;0.90;;;;;;;;;;5099803;28;20261;-77
2022/08/23 14:14:03;;;;;;;1.05;0.60;;;;;;;;;;5101050;28;20574;-76
2022/08/23 14:19:45;;;;;;;1.25;0.70;;;;;;;;;;5095298;28;20227;-76
2022/08/23 14:22:35;;;;;;;2.17;0.80;;;;;;;;;;5104863;28;20202;-78
2022/08/23 14:25:06;;;;;;;1.20;0.80;;;;;;;;;;5101101;28;20226;-78
2022/08/23 14:27:42;;;;;;;1.08;0.90;;;;;;;;;;5093255;28;20204;-78
2022/08/23 14:30:34;;;;;;;2.00;0.85;;;;;;;;;;5101748;28;20736;-78
2022/08/23 14:33:19;;;;;;;1.58;0.98;;;;;;;;;;5092645;28;20663;-78
2022/08/23 14:35:56;;;;;;;1.15;0.85;;;;;;;;;;5099613;28;20229;-78
2022/08/23 14:38:37;;;;;;;1.02;0.70;;;;;;;;;;5105642;28;20649;-78
2022/08/23 14:41:09;;;;;;;1.15;1.00;;;;;;;;;;5100893;28;20194;-78
2022/08/23 14:43:42;;;;;;;0.98;0.65;;;;;;;;;;5100392;28;20198;-78
2022/08/23 14:46:22;;;;;;;1.05;0.82;;;;;;;;;;5096802;28;20279;-78
2022/08/23 14:49:05;;;;;;;1.05;0.70;;;;;;;;;;5104777;28;20201;-78
2022/08/23 14:51:43;;;;;;;1.75;0.80;;;;;;;;;;5095590;28;20218;-77
2022/08/23 14:57:07;;;;;;;1.13;0.88;;;;;;;;;;5088815;28;20191;-78
2022/08/23 15:02:56;;;;;;;2.35;0.90;;;;;;;;;;5094515;28;20194;-78
2022/08/23 15:08:02;;;;;;;1.38;0.80;;;;;;;;;;5043001;28;20314;-77
2022/08/23 15:10:53;;;;;;;2.33;0.80;;;;;;;;;;5045852;28;20233;-77
2022/08/23 15:13:54;;;;;;;1.35;0.93;;;;;;;;;;5033271;28;20640;-78
2022/08/23 15:19:18;;;;;;;0.80;0.80;;;;;;;;;;5035068;28;20223;-77
2022/08/23 15:24:47;;;;;;;1.05;0.80;;;;;;;;;;5043853;28;20199;-77
2022/08/23 15:27:27;;;;;;;2.40;0.80;;;;;;;;;;5046129;28;20196;-77
2022/08/23 15:30:10;;;;;;;2.05;0.70;;;;;;;;;;4742185;22;10001864;-77
2022/08/23 15:33:01;;;;;;;2.95;0.70;;;;;;;;;;5080893;28;20222;-77
2022/08/23 15:38:31;;;;;;;0.90;0.50;;;;;;;;;;5087670;28;20202;-76
2022/08/23 15:41:09;;;;;;;2.55;0.70;;;;;;;;;;5082296;28;20206;-77
2022/08/23 15:43:54;;;;;;;1.05;0.80;;;;;;;;;;5087380;28;20201;-77
2022/08/23 15:46:36;;;;;;;4.88;0.80;;;;;;;;;;5089358;28;20203;-76
2022/08/23 15:49:24;;;;;;;1.48;0.68;;;;;;;;;;5087073;28;20563;-76
2022/08/23 15:52:19;;;;;;;0.90;0.65;;;;;;;;;;5086400;28;20218;-76
2022/08/23 15:54:59;;;;;;;1.50;0.85;;;;;;;;;;5084178;28;20210;-76
2022/08/23 15:57:46;;;;;;;0.80;0.60;;;;;;;;;;5077018;28;20210;-76
2022/08/23 16:00:26;;;;;;;2.72;0.65;;;;;;;;;;5097998;28;20205;-76
2022/08/23 16:03:03;;;;;;;0.80;0.57;;;;;;;;;;5078109;28;20190;-76
2022/08/23 16:05:38;;;;;;;1.55;0.80;;;;;;;;;;5075166;28;20618;-76
2022/08/23 16:08:24;;;;;;;2.15;0.70;;;;;;;;;;5082275;28;20712;-76
2022/08/23 16:11:00;;;;;;;0.65;0.60;;;;;;;;;;5084450;28;20589;-77
2022/08/23 16:13:58;;;;;;;0.80;0.50;;;;;;;;;;5074375;28;20229;-76
2022/08/23 16:16:50;;;;;;;1.70;0.50;;;;;;;;;;5071202;28;20202;-76
2022/08/23 16:19:39;;;;;;;;;;;;;;;;;;;;;
2022/08/23 16:22:16;;;;;;;0.60;0.57;;;;;;;;;;5082790;28;20197;-76
2022/08/23 16:24:50;;;;;;;0.52;0.50;;;;;;;;;;5087887;28;20206;-76
2022/08/23 16:27:32;;;;;;;3.08;1.15;;;;;;;;;;5084885;28;20285;-76
2022/08/23 16:30:07;;;;;;;1.23;0.60;;;;;;;;;;5086734;28;20754;-76
2022/08/23 16:32:57;;;;;;;0.77;0.65;;;;;;;;;;5091810;28;20214;-76
2022/08/23 16:35:51;;;;;;;1.70;0.80;;;;;;;;;;5092419;28;20285;-76
2022/08/23 16:38:34;;;;;;;1.02;0.70;;;;;;;;;;5066443;28;20195;-76
2022/08/23 16:41:30;;;;;;;0.60;0.52;;;;;;;;;;5081742;28;20205;-76
2022/08/23 16:44:04;;;;;;;1.55;0.60;;;;;;;;;;5081435;28;20198;-76
2022/08/23 16:46:43;;;;;;;0.88;0.60;;;;;;;;;;5079845;28;20202;-76